createdAt,value
2018-12-12T00:00:56.764Z,6.70
2018-12-12T00:03:27.748Z,6.10
2018-12-12T00:05:58.599Z,6.10
2018-12-12T00:08:27.507Z,6.13
2018-12-12T00:10:56.388Z,6.00
2018-12-12T00:13:25.363Z,6.75
2018-12-12T00:15:54.512Z,6.95
2018-12-12T00:18:23.649Z,7.30
2018-12-12T00:20:52.530Z,6.60
2018-12-12T00:23:21.787Z,6.95
2018-12-12T00:25:50.731Z,6.58
2018-12-12T00:28:19.745Z,6.72
2018-12-12T00:30:48.656Z,6.92
2018-12-12T00:33:17.572Z,7.10
2018-12-12T00:35:46.487Z,7.92
2018-12-12T00:38:15.404Z,7.95
2018-12-12T00:40:44.511Z,7.97
2018-12-12T00:43:13.380Z,7.97
2018-12-12T00:45:42.299Z,7.70
2018-12-12T00:48:11.280Z,8.15
2018-12-12T00:50:40.173Z,7.62
2018-12-12T00:53:09.068Z,7.75
2018-12-12T00:55:38.007Z,8.43
2018-12-12T00:58:06.923Z,8.30
2018-12-12T01:00:35.803Z,8.88
2018-12-12T01:03:04.816Z,9.00
2018-12-12T01:05:33.948Z,8.28
2018-12-12T01:08:02.772Z,8.58
2018-12-12T01:10:33.235Z,9.78
2018-12-12T01:13:02.113Z,8.93
2018-12-12T01:15:30.991Z,9.50
2018-12-12T01:18:00.020Z,9.35
2018-12-12T01:20:29.151Z,8.10
2018-12-12T01:22:57.985Z,8.50
2018-12-12T01:25:26.859Z,9.48
2018-12-12T01:27:55.824Z,9.70
2018-12-12T01:30:24.761Z,10.15
2018-12-12T01:32:53.656Z,9.30
2018-12-12T01:35:22.573Z,10.58
2018-12-12T01:37:51.571Z,9.10
2018-12-12T01:40:20.564Z,9.70
2018-12-12T01:42:49.416Z,9.83
2018-12-12T01:45:18.315Z,10.05
2018-12-12T01:47:47.288Z,9.55
2018-12-12T01:50:16.200Z,9.78
2018-12-12T01:52:45.118Z,9.35
2018-12-12T01:55:14.213Z,10.20
2018-12-12T01:57:43.107Z,10.63
2018-12-12T02:00:12.029Z,9.80
2018-12-12T02:02:40.931Z,9.75
2018-12-12T02:05:09.898Z,9.85
2018-12-12T02:07:39.140Z,9.60
2018-12-12T02:10:08.300Z,9.90
2018-12-12T02:12:37.208Z,9.75
2018-12-12T02:15:06.495Z,10.18
2018-12-12T02:17:35.385Z,10.50
2018-12-12T02:20:04.660Z,9.80
2018-12-12T02:22:33.579Z,9.65
2018-12-12T02:25:02.638Z,10.15
2018-12-12T02:27:31.568Z,10.48
2018-12-12T02:30:00.576Z,9.53
2018-12-12T02:32:29.505Z,9.65
2018-12-12T02:34:58.381Z,9.00
2018-12-12T02:37:27.335Z,9.68
2018-12-12T02:39:56.343Z,9.18
2018-12-12T02:42:25.254Z,9.43
2018-12-12T02:44:54.309Z,9.40
2018-12-12T02:47:23.220Z,9.90
2018-12-12T02:49:52.098Z,10.08
2018-12-12T02:52:21.090Z,9.68
2018-12-12T02:54:49.991Z,9.63
2018-12-12T02:57:19.040Z,9.48
2018-12-12T02:59:48.025Z,9.70
2018-12-12T03:02:16.992Z,9.83
2018-12-12T03:04:46.006Z,10.13
2018-12-12T03:07:15.004Z,10.53
2018-12-12T03:09:43.979Z,10.20
2018-12-12T03:12:12.874Z,10.43
2018-12-12T03:14:41.802Z,9.70
2018-12-12T03:17:10.769Z,10.20
2018-12-12T03:19:39.662Z,10.38
2018-12-12T03:22:08.649Z,10.18
2018-12-12T03:24:37.504Z,10.03
2018-12-12T03:27:06.442Z,9.83
2018-12-12T03:29:35.384Z,9.73
2018-12-12T03:32:07.486Z,10.20
2018-12-12T03:34:36.591Z,10.18
2018-12-12T03:37:05.496Z,10.18
2018-12-12T03:39:34.437Z,10.90
2018-12-12T03:42:03.540Z,10.40
2018-12-12T03:44:32.461Z,10.88
2018-12-12T03:47:01.349Z,10.80
2018-12-12T03:49:30.383Z,11.15
2018-12-12T03:51:59.328Z,11.03
2018-12-12T03:54:28.237Z,11.45
2018-12-12T03:56:57.144Z,11.15
2018-12-12T03:59:26.077Z,11.03
2018-12-12T04:01:55.010Z,10.93
2018-12-12T04:04:23.935Z,11.00
2018-12-12T04:06:52.852Z,11.15
2018-12-12T04:09:22.173Z,11.77
2018-12-12T04:11:51.073Z,10.80
2018-12-12T04:14:20.068Z,10.60
2018-12-12T04:16:49.034Z,10.72
2018-12-12T04:19:18.104Z,11.55
2018-12-12T04:21:49.216Z,11.78
2018-12-12T04:24:18.136Z,10.63
2018-12-12T04:26:47.364Z,10.98
2018-12-12T04:29:16.485Z,11.08
2018-12-12T04:31:45.446Z,12.00
2018-12-12T04:34:14.363Z,10.95
2018-12-12T04:36:43.252Z,11.10
2018-12-12T04:39:12.175Z,11.70
2018-12-12T04:41:41.232Z,11.40
2018-12-12T04:44:10.132Z,10.28
2018-12-12T04:46:38.996Z,10.75
2018-12-12T04:49:07.930Z,10.88
2018-12-12T04:51:36.910Z,10.78
2018-12-12T04:54:06.044Z,10.60
2018-12-12T04:56:35.120Z,11.10
2018-12-12T04:59:04.394Z,10.88
2018-12-12T05:01:33.484Z,11.03
2018-12-12T05:04:02.408Z,11.28
2018-12-12T05:06:31.495Z,9.77
2018-12-12T05:09:00.451Z,6.85
2018-12-12T05:11:29.473Z,5.55
2018-12-12T05:13:58.408Z,5.33
2018-12-12T05:16:27.395Z,3.47
2018-12-12T05:18:56.264Z,3.37
2018-12-12T05:21:25.157Z,3.00
2018-12-12T05:23:54.093Z,2.95
2018-12-12T05:26:23.132Z,3.05
2018-12-12T05:28:52.032Z,2.90
2018-12-12T05:31:21.008Z,2.40
2018-12-12T05:33:49.895Z,2.50
2018-12-12T05:36:18.825Z,2.45
2018-12-12T05:38:47.775Z,2.58
2018-12-12T05:41:16.666Z,2.45
2018-12-12T05:43:45.583Z,2.30
2018-12-12T05:46:14.563Z,2.22
2018-12-12T05:48:43.632Z,2.17
2018-12-12T05:51:12.471Z,2.40
2018-12-12T05:53:41.463Z,2.35
2018-12-12T05:56:14.044Z,2.30
2018-12-12T05:58:41.200Z,2.40
2018-12-12T06:01:10.285Z,2.55
2018-12-12T06:03:39.256Z,2.37
2018-12-12T06:06:08.228Z,2.22
2018-12-12T06:08:37.167Z,2.60
2018-12-12T06:11:06.087Z,2.87
2018-12-12T06:13:34.948Z,3.15
2018-12-12T06:16:03.838Z,2.87
2018-12-12T06:18:32.945Z,2.87
2018-12-12T06:21:02.068Z,2.90
2018-12-12T06:23:31.110Z,2.72
2018-12-12T06:26:00.018Z,2.90
2018-12-12T06:28:29.007Z,2.70
2018-12-12T06:30:58.090Z,3.00
2018-12-12T06:33:26.889Z,2.98
2018-12-12T06:35:55.831Z,4.58
2018-12-12T06:38:25.209Z,3.60
2018-12-12T06:40:54.235Z,3.00
2018-12-12T06:43:23.204Z,3.35
2018-12-12T06:45:52.135Z,4.33
2018-12-12T06:48:21.063Z,3.90
2018-12-12T06:50:49.936Z,2.80
2018-12-12T06:53:18.944Z,3.00
2018-12-12T06:55:47.817Z,2.80
2018-12-12T06:58:16.741Z,3.20
2018-12-12T07:00:45.797Z,3.05
2018-12-12T07:03:14.666Z,3.10
2018-12-12T07:05:43.880Z,2.90
2018-12-12T07:08:12.760Z,3.47
2018-12-12T07:10:41.647Z,3.40
2018-12-12T07:13:10.531Z,3.40
2018-12-12T07:15:39.412Z,3.25
2018-12-12T07:18:08.349Z,3.37
2018-12-12T07:20:37.309Z,3.83
2018-12-12T07:23:06.193Z,3.70
2018-12-12T07:25:35.095Z,3.50
2018-12-12T07:28:04.151Z,3.55
2018-12-12T07:30:33.009Z,3.55
2018-12-12T07:33:02.096Z,3.90
2018-12-12T07:35:30.988Z,3.83
2018-12-12T07:37:59.963Z,3.45
2018-12-12T07:40:29.013Z,3.60
2018-12-12T07:42:59.885Z,3.45
2018-12-12T07:45:46.665Z,3.65
2018-12-12T07:48:17.617Z,3.80
2018-12-12T07:50:52.039Z,3.92
2018-12-12T07:53:26.793Z,3.80
2018-12-12T07:55:55.664Z,3.50
2018-12-12T07:58:24.565Z,4.05
2018-12-12T08:00:53.525Z,4.00
2018-12-12T08:03:22.461Z,4.05
2018-12-12T08:05:51.481Z,4.12
2018-12-12T08:08:20.360Z,4.37
2018-12-12T08:10:49.292Z,4.37
2018-12-12T08:13:18.222Z,4.90
2018-12-12T08:15:47.430Z,4.97
2018-12-12T08:18:16.336Z,5.00
2018-12-12T08:20:45.443Z,5.12
2018-12-12T08:23:14.963Z,4.97
2018-12-12T08:25:44.247Z,5.37
2018-12-12T08:28:13.312Z,4.77
2018-12-12T08:30:42.171Z,4.80
2018-12-12T08:33:11.492Z,4.87
2018-12-12T08:35:40.460Z,5.70
2018-12-12T08:38:09.437Z,5.57
2018-12-12T08:40:38.527Z,5.58
2018-12-12T08:43:08.423Z,6.03
2018-12-12T08:45:37.403Z,6.78
2018-12-12T08:48:06.337Z,6.00
2018-12-12T08:50:35.396Z,5.37
2018-12-12T08:53:04.760Z,5.50
2018-12-12T08:55:33.688Z,5.50
2018-12-12T08:58:02.570Z,5.50
2018-12-12T09:00:31.498Z,5.42
2018-12-12T09:03:00.499Z,5.42
2018-12-12T09:05:29.533Z,5.47
2018-12-12T09:07:58.523Z,5.30
2018-12-12T09:10:27.733Z,5.75
2018-12-12T09:12:56.632Z,5.72
2018-12-12T09:15:25.490Z,6.20
2018-12-12T09:17:54.536Z,6.40
2018-12-12T09:20:23.622Z,5.85
2018-12-12T09:22:52.572Z,6.30
2018-12-12T09:25:21.630Z,5.80
2018-12-12T09:27:50.655Z,6.72
2018-12-12T09:30:21.581Z,6.37
2018-12-12T09:32:52.548Z,6.67
2018-12-12T09:35:40.275Z,6.58
2018-12-12T09:38:10.257Z,7.40
2018-12-12T09:40:39.665Z,6.42
2018-12-12T09:43:08.694Z,6.70
2018-12-12T09:45:38.027Z,6.22
2018-12-12T09:48:07.113Z,7.00
2018-12-12T09:50:35.956Z,6.60
2018-12-12T09:53:06.947Z,6.08
2018-12-12T09:55:35.806Z,6.65
2018-12-12T09:58:05.005Z,6.20
2018-12-12T10:00:33.916Z,6.55
2018-12-12T10:03:02.860Z,6.00
2018-12-12T10:05:31.875Z,6.30
2018-12-12T10:08:00.788Z,7.07
2018-12-12T10:10:29.867Z,6.25
2018-12-12T10:12:58.790Z,6.50
2018-12-12T10:15:27.838Z,6.30
2018-12-12T10:17:56.748Z,6.55
2018-12-12T10:20:25.814Z,6.30
2018-12-12T10:22:54.770Z,6.80
2018-12-12T10:25:23.695Z,6.40
2018-12-12T10:27:52.721Z,7.17
2018-12-12T10:30:21.607Z,7.37
2018-12-12T10:32:50.499Z,6.50
2018-12-12T10:35:19.451Z,6.80
2018-12-12T10:37:48.316Z,7.03
2018-12-12T10:40:17.232Z,7.00
2018-12-12T10:42:46.166Z,7.12
2018-12-12T10:45:15.060Z,7.53
2018-12-12T10:47:43.964Z,7.42
2018-12-12T10:50:13.079Z,7.10
2018-12-12T10:52:41.881Z,6.95
2018-12-12T10:55:11.064Z,7.42
2018-12-12T10:57:40.039Z,6.63
2018-12-12T11:00:12.901Z,7.25
2018-12-12T11:02:47.159Z,6.40
2018-12-12T11:05:16.153Z,6.62
2018-12-12T11:07:45.093Z,6.75
2018-12-12T11:10:14.223Z,6.62
2018-12-12T11:12:43.081Z,6.92
2018-12-12T11:15:12.069Z,7.05
2018-12-12T11:17:40.977Z,7.20
2018-12-12T11:20:09.864Z,7.00
2018-12-12T11:22:38.787Z,6.58
2018-12-12T11:25:07.837Z,7.10
2018-12-12T11:27:36.851Z,6.87
2018-12-12T11:30:06.968Z,6.87
2018-12-12T11:32:36.970Z,7.53
2018-12-12T11:35:06.200Z,7.73
2018-12-12T11:37:35.180Z,7.77
2018-12-12T11:40:04.689Z,7.25
2018-12-12T11:42:33.585Z,6.87
2018-12-12T11:45:02.648Z,7.75
2018-12-12T11:47:31.624Z,7.67
2018-12-12T11:50:00.519Z,7.58
2018-12-12T11:52:29.541Z,7.80
2018-12-12T11:54:58.777Z,7.40
2018-12-12T11:57:28.196Z,7.83
2018-12-12T11:59:57.117Z,7.53
2018-12-12T12:02:26.115Z,7.78
2018-12-12T12:04:55.142Z,7.30
2018-12-12T12:07:24.116Z,6.92
2018-12-12T12:09:53.220Z,7.05
2018-12-12T12:12:22.200Z,6.90
2018-12-12T12:14:53.224Z,6.80
2018-12-12T12:17:22.125Z,6.90
2018-12-12T12:19:50.999Z,6.62
2018-12-12T12:22:19.996Z,6.22
2018-12-12T12:24:48.897Z,6.53
2018-12-12T12:27:18.217Z,6.50
2018-12-12T12:29:47.101Z,6.17
2018-12-12T12:32:16.118Z,5.92
2018-12-12T12:34:44.963Z,5.95
2018-12-12T12:37:13.889Z,6.08
2018-12-12T12:39:42.925Z,6.17
2018-12-12T12:42:11.821Z,6.25
2018-12-12T12:44:40.712Z,6.15
2018-12-12T12:47:09.669Z,5.75
2018-12-12T12:49:38.543Z,5.30
2018-12-12T12:52:07.538Z,5.75
2018-12-12T12:54:36.453Z,5.70
2018-12-12T12:57:05.431Z,5.97
2018-12-12T12:59:34.457Z,5.60
2018-12-12T13:02:03.334Z,5.53
2018-12-12T13:04:32.228Z,5.50
2018-12-12T13:07:01.161Z,5.60
2018-12-12T13:09:30.101Z,6.47
2018-12-12T13:11:59.163Z,5.83
2018-12-12T13:14:28.197Z,6.25
2018-12-12T13:16:57.121Z,5.92
2018-12-12T13:19:26.028Z,6.28
2018-12-12T13:21:58.719Z,6.00
2018-12-12T13:24:27.626Z,5.70
2018-12-12T13:26:57.604Z,5.35
2018-12-12T13:29:26.549Z,5.95
2018-12-12T13:31:57.156Z,5.70
2018-12-12T13:34:26.033Z,5.33
2018-12-12T13:36:54.943Z,5.40
2018-12-12T13:39:24.210Z,5.70
2018-12-12T13:41:56.062Z,5.62
2018-12-12T13:44:24.988Z,6.37
2018-12-12T13:46:54.068Z,5.87
2018-12-12T13:49:22.947Z,6.40
2018-12-12T13:51:51.842Z,6.47
2018-12-12T13:54:20.812Z,6.20
2018-12-12T13:56:49.724Z,5.85
2018-12-12T13:59:18.611Z,6.45
2018-12-12T14:01:47.578Z,6.53
2018-12-12T14:04:22.589Z,5.90
2018-12-12T14:06:47.673Z,5.85
2018-12-12T14:09:16.546Z,5.37
2018-12-12T14:11:45.442Z,5.67
2018-12-12T14:14:14.372Z,5.25
2018-12-12T14:16:43.292Z,5.30
2018-12-12T14:19:12.278Z,5.27
2018-12-12T14:21:41.209Z,5.15
2018-12-12T14:24:10.163Z,5.20
2018-12-12T14:26:39.415Z,4.97
2018-12-12T14:29:08.351Z,4.70
2018-12-12T14:31:37.344Z,5.12
2018-12-12T14:34:06.286Z,5.20
2018-12-12T14:36:35.193Z,4.75
2018-12-12T14:39:07.080Z,5.12
2018-12-12T14:41:37.015Z,4.97
2018-12-12T14:44:05.913Z,5.40
2018-12-12T14:46:34.787Z,5.70
2018-12-12T14:49:03.817Z,5.40
2018-12-12T14:51:32.868Z,5.47
2018-12-12T14:54:01.779Z,5.58
2018-12-12T14:56:30.984Z,5.30
2018-12-12T14:58:59.907Z,5.58
2018-12-12T15:01:28.808Z,5.25
2018-12-12T15:03:57.728Z,5.50
2018-12-12T15:06:27.201Z,5.42
2018-12-12T15:08:56.281Z,5.53
2018-12-12T15:11:25.168Z,5.10
2018-12-12T15:13:54.121Z,5.40
2018-12-12T15:16:23.127Z,5.62
2018-12-12T15:18:53.228Z,5.55
2018-12-12T15:21:25.873Z,5.70
2018-12-12T15:23:54.235Z,5.15
2018-12-12T15:26:23.119Z,5.67
2018-12-12T15:28:52.009Z,5.62
2018-12-12T15:31:21.045Z,5.70
2018-12-12T15:33:50.056Z,5.90
2018-12-12T15:36:18.997Z,5.85
2018-12-12T15:38:47.951Z,5.75
2018-12-12T15:41:16.932Z,6.00
2018-12-12T15:43:45.861Z,5.95
2018-12-12T15:46:14.782Z,5.80
2018-12-12T15:48:43.777Z,5.95
2018-12-12T15:51:12.777Z,5.95
2018-12-12T15:53:42.716Z,6.20
2018-12-12T15:56:11.755Z,6.10
2018-12-12T15:58:40.718Z,6.12
2018-12-12T16:01:09.722Z,6.15
2018-12-12T16:03:38.609Z,6.30
2018-12-12T16:06:07.573Z,6.75
2018-12-12T16:08:36.546Z,6.53
2018-12-12T16:11:08.356Z,6.53
2018-12-12T16:13:36.725Z,6.10
2018-12-12T16:16:05.604Z,6.25
2018-12-12T16:18:34.747Z,6.50
2018-12-12T16:21:03.600Z,5.95
2018-12-12T16:23:33.109Z,6.28
2018-12-12T16:26:02.032Z,6.87
2018-12-12T16:28:31.087Z,5.40
2018-12-12T16:31:00.194Z,5.78
2018-12-12T16:33:29.137Z,5.60
2018-12-12T16:35:58.048Z,5.60
2018-12-12T16:38:27.109Z,6.42
2018-12-12T16:40:56.015Z,5.12
2018-12-12T16:43:25.319Z,4.95
2018-12-12T16:45:56.194Z,5.00
2018-12-12T16:48:25.155Z,4.30
2018-12-12T16:50:54.075Z,4.72
2018-12-12T16:53:23.013Z,4.97
2018-12-12T16:55:51.936Z,4.20
2018-12-12T16:58:20.939Z,4.78
2018-12-12T17:00:49.886Z,5.05
2018-12-12T17:03:18.932Z,4.80
2018-12-12T17:05:47.829Z,5.17
2018-12-12T17:08:16.787Z,5.17
2018-12-12T17:10:45.740Z,5.30
2018-12-12T17:13:15.027Z,4.42
2018-12-12T17:15:44.012Z,4.60
2018-12-12T17:18:13.038Z,5.00
2018-12-12T17:20:44.387Z,4.65
2018-12-12T17:23:13.643Z,4.95
2018-12-12T17:25:42.618Z,4.42
2018-12-12T17:28:11.508Z,4.60
2018-12-12T17:30:40.741Z,4.10
2018-12-12T17:33:09.712Z,4.40
2018-12-12T17:35:38.845Z,3.85
2018-12-12T17:38:08.048Z,3.02
2018-12-12T17:40:37.045Z,3.30
2018-12-12T17:43:06.053Z,3.70
2018-12-12T17:45:37.050Z,3.25
2018-12-12T17:48:06.182Z,3.50
2018-12-12T17:50:35.111Z,3.70
2018-12-12T17:53:04.141Z,3.40
2018-12-12T17:55:33.082Z,3.40
2018-12-12T17:58:02.001Z,3.30
2018-12-12T18:00:31.001Z,3.40
2018-12-12T18:03:02.116Z,3.27
2018-12-12T18:05:36.725Z,3.20
2018-12-12T18:08:05.777Z,3.60
2018-12-12T18:10:35.679Z,3.37
2018-12-12T18:13:09.767Z,3.62
2018-12-12T18:15:40.780Z,4.17
2018-12-12T18:18:12.002Z,4.00
2018-12-12T18:20:41.066Z,4.42
2018-12-12T18:23:12.008Z,4.33
2018-12-12T18:25:43.111Z,4.60
2018-12-12T18:28:12.021Z,4.55
2018-12-12T18:30:40.928Z,5.08
2018-12-12T18:33:11.869Z,4.80
2018-12-12T18:35:46.821Z,5.00
2018-12-12T18:38:15.919Z,4.95
2018-12-12T18:40:45.193Z,5.22
2018-12-12T18:43:16.199Z,6.47
2018-12-12T18:45:45.304Z,5.25
2018-12-12T18:48:14.552Z,5.78
2018-12-12T18:50:46.305Z,5.95
2018-12-12T18:53:28.647Z,7.58
2018-12-12T18:55:59.765Z,6.20
2018-12-12T18:58:28.702Z,6.37
2018-12-12T19:00:57.750Z,6.20
2018-12-12T19:03:27.885Z,6.50
2018-12-12T19:05:59.901Z,6.77
2018-12-12T19:08:29.036Z,6.25
2018-12-12T19:10:58.237Z,6.28
2018-12-12T19:13:27.254Z,6.72
2018-12-12T19:15:56.392Z,8.93
2018-12-12T19:18:25.345Z,8.63
2018-12-12T19:20:59.900Z,9.45
2018-12-12T19:23:25.495Z,9.35
2018-12-12T19:25:54.495Z,12.78
2018-12-12T19:28:23.564Z,7.42
2018-12-12T19:30:52.824Z,9.25
2018-12-12T19:33:21.859Z,10.23
2018-12-12T19:35:50.861Z,8.15
2018-12-12T19:38:20.341Z,6.78
2018-12-12T19:40:49.342Z,7.83
2018-12-12T19:43:18.393Z,8.73
2018-12-12T19:45:47.317Z,15.20
2018-12-12T19:48:16.327Z,9.75
2018-12-12T19:50:45.270Z,7.10
2018-12-12T19:53:14.535Z,8.90
2018-12-12T19:55:43.598Z,6.10
2018-12-12T19:58:12.851Z,5.83
2018-12-12T20:00:41.857Z,5.47
2018-12-12T20:03:11.088Z,5.60
2018-12-12T20:05:41.469Z,5.50
2018-12-12T20:08:11.826Z,7.65
2018-12-12T20:10:42.627Z,6.67
2018-12-12T20:13:12.620Z,6.35
2018-12-12T20:15:44.055Z,6.80
2018-12-12T20:18:13.143Z,6.03
2018-12-12T20:20:42.185Z,7.20
2018-12-12T20:23:11.351Z,6.40
2018-12-12T20:25:40.341Z,6.30
2018-12-12T20:28:09.529Z,7.00
2018-12-12T20:30:38.495Z,6.33
2018-12-12T20:33:07.585Z,5.78
2018-12-12T20:35:36.709Z,5.35
2018-12-12T20:38:07.932Z,6.20
2018-12-12T20:40:38.426Z,6.13
2018-12-12T20:43:07.337Z,6.17
2018-12-12T20:45:36.507Z,6.42
2018-12-12T20:48:05.479Z,5.87
2018-12-12T20:50:35.315Z,6.83
2018-12-12T20:53:05.233Z,6.35
2018-12-12T20:55:34.274Z,6.78
2018-12-12T20:58:03.542Z,6.78
2018-12-12T21:00:32.562Z,6.97
2018-12-12T21:03:01.692Z,6.60
2018-12-12T21:05:30.760Z,6.42
2018-12-12T21:08:00.132Z,6.90
2018-12-12T21:10:30.580Z,10.20
2018-12-12T21:12:59.731Z,6.72
2018-12-12T21:15:28.954Z,5.75
2018-12-12T21:17:58.354Z,6.50
2018-12-12T21:20:27.243Z,6.08
2018-12-12T21:22:56.823Z,7.62
2018-12-12T21:25:28.884Z,7.83
2018-12-12T21:27:57.775Z,6.60
2018-12-12T21:30:26.697Z,6.00
2018-12-12T21:32:55.839Z,7.20
2018-12-12T21:35:24.866Z,6.57
2018-12-12T21:37:53.797Z,7.10
2018-12-12T21:40:22.758Z,6.40
2018-12-12T21:42:51.714Z,6.78
2018-12-12T21:45:20.670Z,5.80
2018-12-12T21:47:49.702Z,8.30
2018-12-12T21:50:19.182Z,12.80
2018-12-12T21:52:49.259Z,9.58
2018-12-12T21:55:20.020Z,6.65
2018-12-12T21:57:49.084Z,7.87
2018-12-12T22:00:18.117Z,7.73
2018-12-12T22:02:47.210Z,8.53
2018-12-12T22:05:16.743Z,8.60
2018-12-12T22:07:45.709Z,9.25
2018-12-12T22:10:14.736Z,7.28
2018-12-12T22:12:44.629Z,8.90
2018-12-12T22:15:13.527Z,7.42
2018-12-12T22:17:42.462Z,7.80
2018-12-12T22:20:11.409Z,8.47
2018-12-12T22:22:40.508Z,7.40
2018-12-12T22:25:09.429Z,7.92
2018-12-12T22:27:38.371Z,7.70
2018-12-12T22:30:07.499Z,8.28
2018-12-12T22:32:36.415Z,8.20
2018-12-12T22:35:05.676Z,9.45
2018-12-12T22:37:34.712Z,12.35
2018-12-12T22:40:03.863Z,7.87
2018-12-12T22:42:33.313Z,7.47
2018-12-12T22:45:02.311Z,7.78
2018-12-12T22:47:31.233Z,6.72
2018-12-12T22:50:00.154Z,11.33
2018-12-12T22:52:29.081Z,10.08
2018-12-12T22:54:58.027Z,9.15
2018-12-12T22:57:26.901Z,9.50
2018-12-12T22:59:55.816Z,8.38
2018-12-12T23:02:24.667Z,7.00
2018-12-12T23:04:53.630Z,7.42
2018-12-12T23:07:22.604Z,6.33
2018-12-12T23:09:51.476Z,6.75
2018-12-12T23:12:20.701Z,8.08
2018-12-12T23:14:49.556Z,8.70
2018-12-12T23:17:18.566Z,6.85
2018-12-12T23:19:47.447Z,6.63
2018-12-12T23:22:16.366Z,7.30
2018-12-12T23:24:45.336Z,7.85
2018-12-12T23:27:15.424Z,9.43
2018-12-12T23:29:44.500Z,9.98
2018-12-12T23:32:13.383Z,7.60
2018-12-12T23:34:42.261Z,11.03
2018-12-12T23:37:11.177Z,11.78
2018-12-12T23:39:41.146Z,16.60
2018-12-12T23:42:10.058Z,10.60
2018-12-12T23:44:38.949Z,9.35
2018-12-12T23:47:08.040Z,9.70
2018-12-12T23:49:36.996Z,8.55
2018-12-12T23:52:05.893Z,6.97
2018-12-12T23:54:34.924Z,8.85
2018-12-12T23:57:03.825Z,7.50
2018-12-12T23:59:32.730Z,8.60
